Time;durP1;ratioP1;P1;durP2;ratioP2;P2;SDS_P1;SDS_P2;PMS_P1;PMS_P2;Temp;Humidity;BMP_temperature;BMP_pressure;BME280_temperature;BME280_humidity;BME280_pressure;Samples;Min_cycle;Max_cycle;Signal;HPM_P1;HPM_P2
2022/11/14 00:04:34;;;;;;;;;;;;;;;19.70;43.32;95702.50;10495553;28;3190;-53
2022/11/14 00:09:37;;;;;;;;;;;;;;;19.71;43.39;95675.13;10504681;28;3138;-51
2022/11/14 00:14:38;;;;;;;;;;;;;;;19.69;43.24;95685.91;10501552;28;3076;-49
2022/11/14 00:19:39;;;;;;;;;;;;;;;19.70;43.47;95670.94;10505571;28;3134;-52
2022/11/14 00:24:39;;;;;;;;;;;;;;;19.62;43.29;95669.63;10500074;28;3211;-52
2022/11/14 00:29:40;;;;;;;;;;;;;;;19.62;43.21;95659.13;10509428;28;3458;-52
2022/11/14 00:34:40;;;;;;;;;;;;;;;19.60;43.16;95665.72;10524068;28;3060;-52
2022/11/14 00:39:40;;;;;;;;;;;;;;;19.59;43.14;95657.03;10509160;28;3184;-51
2022/11/14 00:44:41;;;;;;;;;;;;;;;19.60;43.26;95640.19;10499389;28;3088;-53
2022/11/14 00:49:41;;;;;;;;;;;;;;;19.59;43.23;95669.38;10501921;28;3687;-53
2022/11/14 00:54:41;;;;;;;;;;;;;;;19.61;42.90;95672.53;10507495;28;3022;-50
2022/11/14 00:59:41;;;;;;;;;;;;;;;19.52;43.17;95668.88;10504055;28;3256;-51
2022/11/14 01:04:42;;;;;;;;;;;;;;;19.51;43.28;95673.38;10514773;28;3231;-51
2022/11/14 01:09:42;;;;;;;;;;;;;;;19.50;43.16;95663.91;10506611;28;3295;-51
2022/11/14 01:14:43;;;;;;;;;;;;;;;19.49;43.26;95665.72;10504170;28;3251;-53
2022/11/14 01:19:43;;;;;;;;;;;;;;;19.44;43.32;95663.13;10501875;28;3286;-52
2022/11/14 01:24:43;;;;;;;;;;;;;;;19.45;43.27;95675.22;10507492;28;3319;-51
2022/11/14 01:29:44;;;;;;;;;;;;;;;19.43;43.22;95679.94;10505705;28;3326;-52
2022/11/14 01:34:45;;;;;;;;;;;;;;;19.43;43.18;95681.81;10511012;28;3318;-50
2022/11/14 01:39:45;;;;;;;;;;;;;;;19.43;42.99;95681.81;10510345;28;3274;-53
2022/11/14 01:44:46;;;;;;;;;;;;;;;19.43;42.98;95669.44;10500233;28;3290;-54
2022/11/14 01:49:48;;;;;;;;;;;;;;;19.39;43.00;95650.00;10511433;28;3295;-52
2022/11/14 01:54:49;;;;;;;;;;;;;;;19.37;43.02;95643.47;10502105;28;3033;-52
2022/11/14 01:59:51;;;;;;;;;;;;;;;19.36;43.07;95650.53;10498020;28;3305;-53
2022/11/14 02:04:55;;;;;;;;;;;;;;;19.36;42.90;95642.66;10496629;28;2966;-52
2022/11/14 02:09:55;;;;;;;;;;;;;;;19.34;42.81;95629.00;10535976;27;3304;-50
2022/11/14 02:14:56;;;;;;;;;;;;;;;19.32;42.94;95638.97;10502774;28;3242;-51
2022/11/14 02:20:02;;;;;;;;;;;;;;;19.30;43.06;95630.56;10505002;28;3303;-51
2022/11/14 02:25:02;;;;;;;;;;;;;;;19.27;42.78;95622.41;10502850;28;3279;-51
2022/11/14 02:30:06;;;;;;;;;;;;;;;19.31;42.90;95626.06;10508383;28;3224;-53
2022/11/14 02:35:07;;;;;;;;;;;;;;;19.25;43.03;95622.69;10500882;28;3322;-50
2022/11/14 02:40:07;;;;;;;;;;;;;;;19.27;43.01;95651.31;10509019;28;3211;-53
2022/11/14 02:45:08;;;;;;;;;;;;;;;19.24;42.96;95644.78;10507014;28;3279;-50
2022/11/14 02:50:08;;;;;;;;;;;;;;;19.22;42.90;95633.75;10501128;28;3405;-52
2022/11/14 02:55:09;;;;;;;;;;;;;;;19.20;43.02;95614.84;10506938;28;3290;-53
2022/11/14 03:00:10;;;;;;;;;;;;;;;19.19;42.98;95607.97;10504178;28;3326;-51
2022/11/14 03:05:10;;;;;;;;;;;;;;;19.18;42.67;95601.16;10498751;28;3540;-52
2022/11/14 03:10:12;;;;;;;;;;;;;;;19.19;42.77;95605.34;10501494;28;3357;-51
2022/11/14 03:15:13;;;;;;;;;;;;;;;19.17;43.00;95594.34;10505321;28;2970;-53
2022/11/14 03:20:13;;;;;;;;;;;;;;;19.13;42.97;95598.53;10507087;28;3009;-52
2022/11/14 03:25:13;;;;;;;;;;;;;;;19.14;42.94;95596.72;10509336;28;3268;-53
2022/11/14 03:30:14;;;;;;;;;;;;;;;19.17;42.81;95604.84;10500374;28;3427;-52
2022/11/14 03:35:14;;;;;;;;;;;;;;;19.10;42.73;95603.56;10510736;28;3398;-51
2022/11/14 03:40:15;;;;;;;;;;;;;;;19.07;43.02;95599.63;10493555;28;3441;-52
2022/11/14 03:45:15;;;;;;;;;;;;;;;19.09;42.90;95600.13;10497095;28;3370;-52
2022/11/14 03:50:15;;;;;;;;;;;;;;;19.08;43.06;95595.16;10499946;28;3306;-53
2022/11/14 03:55:15;;;;;;;;;;;;;;;19.05;42.81;95591.22;10507061;28;3405;-53
2022/11/14 04:00:16;;;;;;;;;;;;;;;19.03;42.96;95588.06;10500237;28;3375;-50
2022/11/14 04:05:16;;;;;;;;;;;;;;;19.03;42.73;95618.81;10503584;28;3434;-53
2022/11/14 04:10:17;;;;;;;;;;;;;;;19.03;42.84;95609.09;10510183;28;3344;-50
2022/11/14 04:15:17;;;;;;;;;;;;;;;19.02;42.92;95615.38;10507046;28;3333;-51
2022/11/14 04:20:17;;;;;;;;;;;;;;;19.05;42.79;95635.88;10504718;28;3275;-52
2022/11/14 04:25:18;;;;;;;;;;;;;;;19.00;42.89;95638.50;10504773;28;3327;-52
2022/11/14 04:30:18;;;;;;;;;;;;;;;18.97;42.87;95610.16;10502905;28;3358;-53
2022/11/14 04:35:19;;;;;;;;;;;;;;;19.02;42.83;95617.25;10512823;28;3451;-50
2022/11/14 04:40:19;;;;;;;;;;;;;;;18.99;42.83;95608.06;10512608;28;3299;-53
2022/11/14 04:45:20;;;;;;;;;;;;;;;18.97;42.81;95593.59;10502372;28;3286;-53
2022/11/14 04:50:20;;;;;;;;;;;;;;;18.94;43.01;95604.66;10504567;28;3635;-51
2022/11/14 04:55:20;;;;;;;;;;;;;;;18.95;42.81;95595.72;10504506;28;3053;-50
2022/11/14 05:00:26;;;;;;;;;;;;;;;18.96;42.73;95603.31;10506395;28;3262;-53
2022/11/14 05:05:26;;;;;;;;;;;;;;;18.99;42.71;95591.50;10507467;28;3363;-49
2022/11/14 05:10:26;;;;;;;;;;;;;;;19.05;42.85;95591.22;10511781;28;2997;-52
2022/11/14 05:15:26;;;;;;;;;;;;;;;19.18;42.58;95595.13;10507872;28;3088;-53
2022/11/14 05:20:27;;;;;;;;;;;;;;;19.28;42.46;95588.00;10506260;28;2990;-53
2022/11/14 05:25:27;;;;;;;;;;;;;;;19.34;42.31;95591.41;10508339;28;3330;-52
2022/11/14 05:30:28;;;;;;;;;;;;;;;19.42;42.33;95591.63;10508146;28;3300;-49
2022/11/14 05:35:28;;;;;;;;;;;;;;;19.41;41.92;95582.16;10502395;28;3271;-52
2022/11/14 05:40:28;;;;;;;;;;;;;;;19.47;41.52;95594.22;10504985;28;3030;-52
2022/11/14 05:45:29;;;;;;;;;;;;;;;19.48;41.80;95595.03;10518671;28;3392;-51
2022/11/14 05:50:34;;;;;;;;;;;;;;;19.49;41.20;95615.00;10512154;28;3394;-52
2022/11/14 05:55:34;;;;;;;;;;;;;;;19.53;40.59;95629.19;10510953;28;3362;-50
2022/11/14 06:00:34;;;;;;;;;;;;;;;19.56;40.32;95630.50;10509874;28;3188;-54
2022/11/14 06:05:34;;;;;;;;;;;;;;;19.61;40.43;95635.72;10505140;28;3331;-53
2022/11/14 06:10:35;;;;;;;;;;;;;;;19.60;39.81;95642.81;10502495;28;3015;-51
2022/11/14 06:15:35;;;;;;;;;;;;;;;19.67;41.28;95645.97;10501039;28;3001;-49
2022/11/14 06:20:35;;;;;;;;;;;;;;;19.74;41.08;95654.31;10502292;28;3431;-53
2022/11/14 06:25:35;;;;;;;;;;;;;;;19.82;40.66;95656.41;10493132;28;3367;-50
2022/11/14 06:30:37;;;;;;;;;;;;;;;19.84;41.51;95645.63;10497994;28;3353;-51
2022/11/14 06:35:37;;;;;;;;;;;;;;;19.86;41.43;95643.50;10492208;28;3290;-51
2022/11/14 06:40:37;;;;;;;;;;;;;;;19.90;41.66;95636.63;10503587;28;3219;-46
2022/11/14 06:45:39;;;;;;;;;;;;;;;19.91;42.02;95646.88;10502559;28;3378;-51
2022/11/14 06:50:39;;;;;;;;;;;;;;;19.91;42.13;95648.72;10498852;28;3128;-50
2022/11/14 06:55:40;;;;;;;;;;;;;;;19.94;42.18;95662.13;10498760;28;3291;-51
2022/11/14 07:00:40;;;;;;;;;;;;;;;19.93;42.57;95662.38;10504773;28;3340;-53
2022/11/14 07:05:40;;;;;;;;;;;;;;;19.92;42.31;95661.63;10500797;28;3258;-52
2022/11/14 07:10:40;;;;;;;;;;;;;;;19.91;42.39;95644.25;10503672;28;3279;-51
2022/11/14 07:15:51;;;;;;;;;;;;;;;19.87;42.87;95637.97;10510053;28;3287;-52
2022/11/14 07:20:57;;;;;;;;;;;;;;;19.86;42.58;95644.28;10497030;28;3405;-51
2022/11/14 07:26:01;;;;;;;;;;;;;;;19.85;42.71;95639.28;10497845;28;3295;-48
2022/11/14 07:31:05;;;;;;;;;;;;;;;19.84;42.81;95640.34;10505148;28;3274;-50
2022/11/14 07:36:06;;;;;;;;;;;;;;;19.81;42.55;95654.03;10498282;28;3247;-46
2022/11/14 07:41:15;;;;;;;;;;;;;;;19.79;42.45;95653.53;10498292;28;3306;-50
2022/11/14 07:46:16;;;;;;;;;;;;;;;19.73;42.62;95652.75;10502306;28;3242;-51
2022/11/14 07:51:17;;;;;;;;;;;;;;;19.68;42.46;95654.63;10500137;28;3268;-51
2022/11/14 07:56:19;;;;;;;;;;;;;;;19.67;42.56;95642.53;10497143;28;3330;-49
2022/11/14 08:01:19;;;;;;;;;;;;;;;19.67;42.51;95639.91;10503663;28;3268;-49
2022/11/14 08:06:19;;;;;;;;;;;;;;;19.62;42.72;95632.06;10499340;28;3323;-49
2022/11/14 08:11:46;;;;;;;;;;;;;;;19.59;42.79;95624.69;10506075;28;3363;-49
2022/11/14 08:16:39;;;;;;;;;;;;;;;19.60;42.71;95618.38;10496422;28;3299;-50
2022/11/14 08:21:40;;;;;;;;;;;;;;;19.59;42.63;95627.31;10494428;28;3191;-51
2022/11/14 08:26:40;;;;;;;;;;;;;;;19.57;42.65;95613.66;10499014;28;3318;-52
2022/11/14 08:31:41;;;;;;;;;;;;;;;19.53;42.78;95599.47;10506172;28;3397;-51
2022/11/14 08:36:41;;;;;;;;;;;;;;;19.53;42.94;95602.09;10498051;28;2911;-50
2022/11/14 08:41:41;;;;;;;;;;;;;;;19.52;42.78;95611.03;10494912;28;3267;-53
2022/11/14 08:46:41;;;;;;;;;;;;;;;19.52;42.76;95613.66;10497962;28;3259;-50
2022/11/14 08:51:42;;;;;;;;;;;;;;;19.45;42.78;95630.53;10498698;28;2994;-48
2022/11/14 08:56:42;;;;;;;;;;;;;;;19.43;42.97;95619.50;10494753;28;3260;-49
2022/11/14 09:01:43;;;;;;;;;;;;;;;19.41;43.06;95608.44;10498039;28;3296;-52
2022/11/14 09:06:45;;;;;;;;;;;;;;;19.42;42.81;95610.03;10511395;28;3334;-51
2022/11/14 09:11:45;;;;;;;;;;;;;;;19.37;43.06;95604.78;10499483;28;3213;-50
2022/11/14 09:16:48;;;;;;;;;;;;;;;19.37;43.18;95604.78;10513907;28;3318;-53
2022/11/14 09:21:48;;;;;;;;;;;;;;;19.35;42.92;95604.28;10502242;28;3005;-49
2022/11/14 09:26:50;;;;;;;;;;;;;;;19.36;42.85;95602.44;10511578;28;3342;-51
2022/11/14 09:31:50;;;;;;;;;;;;;;;19.32;43.10;95607.44;10502992;28;3275;-51
2022/11/14 09:36:50;;;;;;;;;;;;;;;19.31;43.21;95600.59;10496274;28;3101;-52
2022/11/14 09:42:09;;;;;;;;;;;;;;;19.31;43.03;95618.97;10498661;28;3356;-53
2022/11/14 09:47:11;;;;;;;;;;;;;;;19.28;43.22;95622.16;10494770;28;3219;-51
2022/11/14 09:52:25;;;;;;;;;;;;;;;19.29;43.11;95622.91;10496761;28;3295;-52
2022/11/14 09:57:25;;;;;;;;;;;;;;;19.29;43.13;95628.19;10494674;28;3239;-54
2022/11/14 10:02:25;;;;;;;;;;;;;;;19.27;43.14;95625.81;10498510;28;3445;-53
2022/11/14 10:07:36;;;;;;;;;;;;;;;19.27;43.20;95623.19;10508327;28;3307;-53
2022/11/14 10:12:39;;;;;;;;;;;;;;;19.27;43.12;95625.81;10506578;28;2926;-50
2022/11/14 10:17:45;;;;;;;;;;;;;;;19.25;43.32;95630.56;10503149;28;3414;-53
2022/11/14 10:22:48;;;;;;;;;;;;;;;19.28;43.24;95630.03;10503544;28;3290;-53
2022/11/14 10:27:53;;;;;;;;;;;;;;;19.25;43.55;95627.13;10501942;28;3306;-54
2022/11/14 10:33:00;;;;;;;;;;;;;;;19.28;43.27;95622.16;10496433;28;3307;-51
2022/11/14 10:38:00;;;;;;;;;;;;;;;19.27;43.24;95619.78;10503321;28;3294;-51
2022/11/14 10:43:02;;;;;;;;;;;;;;;19.28;43.46;95618.75;10509245;28;3326;-52
2022/11/14 10:48:07;;;;;;;;;;;;;;;19.25;43.59;95630.56;10505590;28;3618;-51
2022/11/14 10:53:23;;;;;;;;;;;;;;;19.27;43.37;95631.09;10495616;28;3251;-53
2022/11/14 10:58:24;;;;;;;;;;;;;;;19.26;43.39;95634.78;10495497;28;3359;-53
2022/11/14 11:03:41;;;;;;;;;;;;;;;19.30;43.34;95641.06;10490067;28;3263;-50
2022/11/14 11:14:00;;;;;;;;;;;;;;;19.28;43.51;95647.66;10497594;28;3180;-51
2022/11/14 11:19:16;;;;;;;;;;;;;;;19.29;43.31;95665.78;10495656;28;3438;-53
2022/11/14 11:24:32;;;;;;;;;;;;;;;19.35;43.30;95669.22;10504410;28;2985;-52
2022/11/14 11:29:32;;;;;;;;;;;;;;;19.36;43.24;95682.09;10505170;28;3271;-52
2022/11/14 11:34:32;;;;;;;;;;;;;;;19.35;43.44;95692.88;10498740;28;3632;-52
2022/11/14 11:39:36;;;;;;;;;;;;;;;19.33;43.33;95693.13;10497432;28;2993;-52
2022/11/14 11:44:38;;;;;;;;;;;;;;;19.35;43.26;95695.50;10502146;28;3314;-51
2022/11/14 11:49:38;;;;;;;;;;;;;;;19.36;43.21;95691.81;10497073;28;3272;-52
2022/11/14 11:54:45;;;;;;;;;;;;;;;19.38;43.32;95685.22;10502287;28;3215;-52
2022/11/14 11:59:48;;;;;;;;;;;;;;;19.36;43.30;95692.59;10515719;28;3254;-53
2022/11/14 12:04:48;;;;;;;;;;;;;;;19.37;43.44;95681.00;10503648;28;3271;-52
2022/11/14 12:09:49;;;;;;;;;;;;;;;19.37;43.33;95690.75;10505468;28;3341;-53
2022/11/14 12:15:07;;;;;;;;;;;;;;;19.42;43.11;95681.00;10506841;28;3386;-51
2022/11/14 12:20:27;;;;;;;;;;;;;;;19.39;43.23;95678.91;10509008;28;3021;-50
2022/11/14 12:25:45;;;;;;;;;;;;;;;19.36;43.26;95689.19;10504688;28;3391;-54
2022/11/14 12:30:47;;;;;;;;;;;;;;;19.35;43.42;95698.91;10509184;28;3293;-53
2022/11/14 12:35:48;;;;;;;;;;;;;;;19.37;43.44;95701.28;10505214;28;3388;-53
2022/11/14 12:40:52;;;;;;;;;;;;;;;19.37;43.53;95709.94;10505850;28;3207;-53
2022/11/14 12:45:56;;;;;;;;;;;;;;;19.41;43.50;95713.59;10509535;28;3291;-53
2022/11/14 12:50:57;;;;;;;;;;;;;;;19.44;43.56;95702.56;10510973;28;3014;-52
2022/11/14 12:56:01;;;;;;;;;;;;;;;19.57;43.11;95711.72;10510263;28;3377;-52
2022/11/14 13:01:07;;;;;;;;;;;;;;;19.96;42.37;95711.84;10529683;28;3299;-53
2022/11/14 13:06:07;;;;;;;;;;;;;;;19.91;42.26;95715.28;10488341;28;3318;-52
2022/11/14 13:21:44;;;;;;;;;;;;;;;19.73;42.83;95709.81;10502156;28;2982;-51
2022/11/14 13:22:13;;;;;;;;;;;;;;;19.45;43.61;95709.38;10507100;28;3278;-53
2022/11/14 13:27:26;;;;;;;;;;;;;;;19.36;43.39;95708.38;10503370;28;3294;-52
2022/11/14 13:32:42;;;;;;;;;;;;;;;19.29;43.65;95701.75;10498445;28;2962;-52
2022/11/14 13:37:42;;;;;;;;;;;;;;;19.27;43.76;95702.03;10508012;28;3295;-51
2022/11/14 13:42:58;;;;;;;;;;;;;;;19.28;43.76;95692.31;10509737;28;3552;-53
2022/11/14 13:48:07;;;;;;;;;;;;;;;19.26;44.02;95695.22;10502447;28;3426;-53
2022/11/14 13:53:12;;;;;;;;;;;;;;;19.22;43.97;95694.19;10499867;28;3259;-52
2022/11/14 13:58:31;;;;;;;;;;;;;;;19.18;44.09;95693.13;10506172;28;3389;-52
2022/11/14 14:03:32;;;;;;;;;;;;;;;19.14;43.97;95692.09;10504704;28;3342;-52
2022/11/14 14:08:51;;;;;;;;;;;;;;;19.11;44.15;95689.19;10508540;28;3338;-51
2022/11/14 14:14:09;;;;;;;;;;;;;;;19.08;44.16;95690.50;10501665;28;3327;-53
2022/11/14 14:19:33;;;;;;;;;;;;;;;19.08;44.00;95687.13;10503519;28;3312;-50
2022/11/14 14:24:39;;;;;;;;;;;;;;;19.05;44.13;95685.00;10510770;28;3244;-51
2022/11/14 14:30:07;;;;;;;;;;;;;;;19.03;44.18;95687.09;10503262;28;3400;-52
2022/11/14 14:35:20;;;;;;;;;;;;;;;19.04;43.96;95683.44;10504402;28;2994;-52
2022/11/14 14:40:32;;;;;;;;;;;;;;;19.13;43.92;95692.34;10512145;28;3002;-51
2022/11/14 14:45:46;;;;;;;;;;;;;;;19.24;43.79;95689.44;10497384;28;3262;-53
2022/11/14 14:50:47;;;;;;;;;;;;;;;19.34;43.71;95693.91;10496529;28;3401;-53
2022/11/14 14:55:52;;;;;;;;;;;;;;;19.44;43.38;95686.78;10506493;28;3274;-51
2022/11/14 15:00:55;;;;;;;;;;;;;;;19.54;43.26;95693.09;10504957;28;3299;-48
2022/11/14 15:05:57;;;;;;;;;;;;;;;19.59;43.24;95685.16;10506031;28;3425;-50
2022/11/14 15:10:58;;;;;;;;;;;;;;;19.67;43.27;95676.72;10502970;28;3299;-51
2022/11/14 15:15:58;;;;;;;;;;;;;;;19.70;43.42;95682.22;10502320;28;3302;-48
2022/11/14 15:21:05;;;;;;;;;;;;;;;19.76;43.15;95683.81;10499479;28;3305;-49
2022/11/14 15:26:12;;;;;;;;;;;;;;;19.82;42.97;95679.28;10498935;28;3315;-50
2022/11/14 15:31:18;;;;;;;;;;;;;;;19.85;43.06;95686.63;10498995;28;3334;-48
2022/11/14 15:36:19;;;;;;;;;;;;;;;19.89;43.12;95679.78;10496918;28;3256;-52
2022/11/14 15:41:19;;;;;;;;;;;;;;;19.90;43.04;95690.03;10503851;28;3088;-53
2022/11/14 15:46:38;;;;;;;;;;;;;;;19.94;42.98;95682.38;10507538;28;3232;-50
2022/11/14 15:52:04;;;;;;;;;;;;;;;19.96;42.68;95675.81;10506757;28;3243;-52
2022/11/14 15:57:08;;;;;;;;;;;;;;;20.01;42.72;95677.63;10500975;28;3288;-53
2022/11/14 16:02:10;;;;;;;;;;;;;;;20.03;42.73;95665.00;10504245;28;3263;-50
2022/11/14 16:07:11;;;;;;;;;;;;;;;20.06;42.21;95674.97;10506936;28;3356;-51
2022/11/14 16:12:12;;;;;;;;;;;;;;;20.07;42.68;95671.28;10506274;28;3226;-51
2022/11/14 16:17:12;;;;;;;;;;;;;;;20.08;42.43;95676.25;10507452;28;3283;-51
2022/11/14 16:22:14;;;;;;;;;;;;;;;20.09;42.56;95672.56;10505330;28;3355;-51
2022/11/14 16:27:15;;;;;;;;;;;;;;;20.12;42.50;95676.50;10505278;28;3597;-53
2022/11/14 16:32:15;;;;;;;;;;;;;;;20.14;42.52;95677.81;10511909;28;3301;-53
2022/11/14 16:37:15;;;;;;;;;;;;;;;20.16;42.43;95680.16;10504630;28;2997;-50
2022/11/14 16:42:16;;;;;;;;;;;;;;;20.16;42.58;95680.94;10502777;28;3343;-51
2022/11/14 16:47:16;;;;;;;;;;;;;;;20.19;42.28;95692.78;10512155;28;3301;-53
2022/11/14 16:52:17;;;;;;;;;;;;;;;20.17;42.58;95698.31;10515670;28;2990;-49
2022/11/14 16:57:18;;;;;;;;;;;;;;;20.21;42.23;95701.22;10502569;28;3284;-49
2022/11/14 17:02:18;;;;;;;;;;;;;;;20.21;42.26;95694.13;10507445;28;3290;-54
2022/11/14 17:07:19;;;;;;;;;;;;;;;20.24;41.98;95687.50;10510716;28;3328;-52
2022/11/14 17:12:19;;;;;;;;;;;;;;;20.24;42.28;95677.78;10507046;28;3271;-52
2022/11/14 17:17:20;;;;;;;;;;;;;;;20.24;42.08;95688.31;10505239;28;3246;-53
2022/11/14 17:22:20;;;;;;;;;;;;;;;20.26;42.27;95691.44;10501225;28;3322;-53
2022/11/14 17:27:20;;;;;;;;;;;;;;;20.31;42.10;95681.94;10510035;28;3382;-55
2022/11/14 17:32:20;;;;;;;;;;;;;;;20.30;42.16;95686.41;10511871;28;3302;-51
2022/11/14 17:37:21;;;;;;;;;;;;;;;20.30;41.28;95691.69;10499606;28;3389;-54
2022/11/14 17:42:21;;;;;;;;;;;;;;;20.31;41.56;95687.22;10502452;28;3283;-52
2022/11/14 17:47:21;;;;;;;;;;;;;;;20.35;42.08;95688.25;10507504;28;3397;-52
2022/11/14 17:52:28;;;;;;;;;;;;;;;20.40;42.54;95681.13;10513199;28;3286;-51
2022/11/14 17:57:29;;;;;;;;;;;;;;;20.43;42.37;95685.03;10506452;28;3247;-52
2022/11/14 18:02:30;;;;;;;;;;;;;;;20.47;42.05;95683.41;10495864;28;3348;-53
2022/11/14 18:07:31;;;;;;;;;;;;;;;20.53;42.91;95685.75;10505541;28;3278;-54
2022/11/14 18:12:42;;;;;;;;;;;;;;;20.49;42.67;95689.97;10509894;28;3065;-50
2022/11/14 18:17:42;;;;;;;;;;;;;;;20.50;42.55;95682.88;10513945;28;3255;-53
2022/11/14 18:22:42;;;;;;;;;;;;;;;20.53;43.01;95691.00;10515132;28;3279;-53
2022/11/14 18:27:43;;;;;;;;;;;;;;;20.52;42.75;95686.03;10506670;28;3292;-53
2022/11/14 18:32:44;;;;;;;;;;;;;;;20.57;42.94;95692.03;10508506;28;3302;-54
2022/11/14 18:37:44;;;;;;;;;;;;;;;20.57;43.10;95681.50;10513660;28;3250;-54
2022/11/14 18:42:47;;;;;;;;;;;;;;;20.58;43.57;95682.28;10507531;28;3369;-50
2022/11/14 18:47:48;;;;;;;;;;;;;;;20.57;43.61;95686.75;10501863;28;3338;-50
2022/11/14 18:52:49;;;;;;;;;;;;;;;20.60;43.82;95682.81;10509981;28;3330;-53
2022/11/14 18:57:49;;;;;;;;;;;;;;;20.62;44.01;95685.94;10515518;28;2981;-53
2022/11/14 19:02:49;;;;;;;;;;;;;;;20.60;44.02;95685.44;10511298;28;2975;-51
2022/11/14 19:07:50;;;;;;;;;;;;;;;20.57;42.34;95683.34;10509803;28;3250;-49
2022/11/14 19:12:51;;;;;;;;;;;;;;;20.56;44.03;95685.22;10504829;28;3243;-51
2022/11/14 19:17:51;;;;;;;;;;;;;;;20.58;44.24;95679.66;10507797;28;3325;-51
2022/11/14 19:22:52;;;;;;;;;;;;;;;20.61;44.07;95692.28;10518964;28;3404;-49
2022/11/14 19:27:52;;;;;;;;;;;;;;;20.58;44.22;95690.97;10507724;28;3389;-52
2022/11/14 19:32:52;;;;;;;;;;;;;;;20.53;44.20;95696.28;10539090;27;3288;-53
2022/11/14 19:37:53;;;;;;;;;;;;;;;20.48;43.35;95692.91;10509572;28;3361;-51
2022/11/14 19:42:54;;;;;;;;;;;;;;;20.42;43.47;95683.47;10512308;28;3223;-51
2022/11/14 19:47:56;;;;;;;;;;;;;;;20.39;43.22;95690.06;10521300;28;2947;-51
2022/11/14 19:52:57;;;;;;;;;;;;;;;20.39;43.13;95690.06;10510250;28;3322;-49
2022/11/14 19:57:57;;;;;;;;;;;;;;;20.40;43.31;95696.13;10499475;28;3231;-52
2022/11/14 20:02:58;;;;;;;;;;;;;;;20.42;43.03;95686.09;10508896;28;3351;-52
2022/11/14 20:07:59;;;;;;;;;;;;;;;20.43;43.31;95688.44;10503482;28;3244;-53
2022/11/14 20:12:59;;;;;;;;;;;;;;;20.40;43.32;95689.00;10507969;28;3404;-51
2022/11/14 20:17:59;;;;;;;;;;;;;;;20.39;43.35;95674.25;10494738;28;2907;-52
2022/11/14 20:23:00;;;;;;;;;;;;;;;20.41;42.96;95681.88;10506694;28;3303;-52
2022/11/14 20:28:00;;;;;;;;;;;;;;;20.40;42.95;95675.06;10518215;28;3425;-50
2022/11/14 20:33:01;;;;;;;;;;;;;;;20.40;43.03;95675.06;10505889;28;3321;-52
2022/11/14 20:38:01;;;;;;;;;;;;;;;20.42;42.81;95673.72;10520108;28;2957;-53
2022/11/14 20:43:01;;;;;;;;;;;;;;;20.40;42.65;95673.22;10508621;28;3286;-54
2022/11/14 20:48:02;;;;;;;;;;;;;;;20.40;42.17;95660.06;10514802;28;3334;-52
2022/11/14 20:53:02;;;;;;;;;;;;;;;20.42;42.52;95659.78;10520772;28;3279;-49
2022/11/14 20:58:02;;;;;;;;;;;;;;;20.42;42.08;95663.19;10521987;28;3335;-53
2022/11/14 21:03:02;;;;;;;;;;;;;;;20.44;42.51;95658.44;10511518;28;2965;-52
2022/11/14 21:08:03;;;;;;;;;;;;;;;20.45;41.78;95657.38;10511576;28;3315;-52
2022/11/14 21:18:25;;;;;;;;;;;;;;;20.38;40.49;95645.59;10516487;28;3255;-53
2022/11/14 21:23:25;;;;;;;;;;;;;;;20.40;41.08;95643.47;10508939;28;3284;-53
2022/11/14 21:28:27;;;;;;;;;;;;;;;20.41;41.29;95640.53;10513603;28;3271;-53
2022/11/14 21:33:27;;;;;;;;;;;;;;;20.45;41.30;95630.25;10535928;27;3354;-50
2022/11/14 21:38:27;;;;;;;;;;;;;;;20.44;40.42;95623.41;10512231;28;3006;-51
2022/11/14 21:43:27;;;;;;;;;;;;;;;20.48;41.75;95625.22;10510696;28;2946;-51
2022/11/14 21:48:28;;;;;;;;;;;;;;;20.48;41.76;95622.59;10509221;28;3299;-52
2022/11/14 21:53:29;;;;;;;;;;;;;;;20.48;40.90;95621.81;10513877;28;3292;-51
2022/11/14 21:58:29;;;;;;;;;;;;;;;20.52;41.87;95620.19;10518524;28;3255;-50
2022/11/14 22:08:50;;;;;;;;;;;;;;;20.49;41.76;95618.88;10504366;28;3308;-53
2022/11/14 22:13:51;;;;;;;;;;;;;;;20.51;41.16;95616.75;10510299;28;3278;-47
2022/11/14 22:18:56;;;;;;;;;;;;;;;20.53;42.01;95619.13;10503851;28;3259;-53
2022/11/14 22:23:56;;;;;;;;;;;;;;;20.54;42.01;95618.88;10505203;28;3145;-54
2022/11/14 22:28:57;;;;;;;;;;;;;;;20.51;41.88;95629.94;10501051;28;3248;-52
2022/11/14 22:33:57;;;;;;;;;;;;;;;20.52;41.90;95634.16;10502059;28;3268;-48
2022/11/14 22:38:57;;;;;;;;;;;;;;;20.52;41.97;95623.63;10509607;28;3259;-54
2022/11/14 22:43:58;;;;;;;;;;;;;;;20.48;42.17;95632.34;10505502;28;3276;-52
2022/11/14 22:48:58;;;;;;;;;;;;;;;20.49;41.95;95626.78;10505601;28;3361;-54
2022/11/14 22:53:58;;;;;;;;;;;;;;;20.45;42.01;95625.78;10505215;28;2987;-50
2022/11/14 22:59:02;;;;;;;;;;;;;;;20.42;42.21;95621.06;10503235;28;3322;-51
2022/11/14 23:04:02;;;;;;;;;;;;;;;20.38;42.02;95620.03;10505054;28;3188;-52
2022/11/14 23:09:03;;;;;;;;;;;;;;;20.38;41.94;95617.38;10501615;28;3290;-51
2022/11/14 23:14:03;;;;;;;;;;;;;;;20.32;41.99;95621.13;10499106;28;3302;-52
2022/11/14 23:19:03;;;;;;;;;;;;;;;20.29;42.11;95616.41;10500530;28;3322;-53
2022/11/14 23:24:05;;;;;;;;;;;;;;;20.28;41.92;95610.38;10504847;28;3259;-53
2022/11/14 23:29:05;;;;;;;;;;;;;;;20.25;41.99;95612.75;10499778;28;3311;-51
2022/11/14 23:34:05;;;;;;;;;;;;;;;20.20;42.20;95610.94;10499201;28;2970;-52
2022/11/14 23:39:06;;;;;;;;;;;;;;;20.16;42.10;95609.09;10498131;28;3244;-48
2022/11/14 23:44:06;;;;;;;;;;;;;;;20.17;41.95;95597.53;10499200;28;3480;-53
2022/11/14 23:49:07;;;;;;;;;;;;;;;20.21;41.71;95612.53;10503368;28;3315;-51
2022/11/14 23:54:07;;;;;;;;;;;;;;;20.17;41.88;95597.53;10504993;28;3236;-51
2022/11/14 23:59:07;;;;;;;;;;;;;;;20.12;41.89;95581.75;10503621;28;3231;-53
